sensor_id;sensor_type;location;lat;lon;timestamp;pressure;altitude;pressure_sealevel;temperature;humidity
9307;BME280;4691;47.612;7.610;2023-05-11T00:02:11;98666.25;;;12.12;100.00
9307;BME280;4691;47.612;7.610;2023-05-11T00:04:36;98666.00;;;12.15;100.00
9307;BME280;4691;47.612;7.610;2023-05-11T00:07:01;98658.13;;;12.24;100.00
9307;BME280;4691;47.612;7.610;2023-05-11T00:09:27;98657.41;;;12.22;100.00
9307;BME280;4691;47.612;7.610;2023-05-11T00:11:52;98662.06;;;12.19;100.00
9307;BME280;4691;47.612;7.610;2023-05-11T00:14:18;98658.41;;;12.20;100.00
9307;BME280;4691;47.612;7.610;2023-05-11T00:16:43;98645.97;;;12.19;100.00
9307;BME280;4691;47.612;7.610;2023-05-11T00:19:08;98658.41;;;12.20;100.00
9307;BME280;4691;47.612;7.610;2023-05-11T00:21:34;98653.91;;;12.21;100.00
9307;BME280;4691;47.612;7.610;2023-05-11T00:23:59;98655.00;;;12.18;100.00
9307;BME280;4691;47.612;7.610;2023-05-11T00:26:24;98656.97;;;12.16;100.00
9307;BME280;4691;47.612;7.610;2023-05-11T00:28:50;98649.66;;;12.18;100.00
9307;BME280;4691;47.612;7.610;2023-05-11T00:31:16;98638.94;;;12.18;100.00
9307;BME280;4691;47.612;7.610;2023-05-11T00:33:41;98638.78;;;12.20;100.00
9307;BME280;4691;47.612;7.610;2023-05-11T00:36:06;98646.97;;;12.18;100.00
9307;BME280;4691;47.612;7.610;2023-05-11T00:38:32;98637.22;;;12.17;100.00
9307;BME280;4691;47.612;7.610;2023-05-11T00:40:57;98638.09;;;12.18;100.00
9307;BME280;4691;47.612;7.610;2023-05-11T00:43:23;98634.72;;;12.26;100.00
9307;BME280;4691;47.612;7.610;2023-05-11T00:45:48;98656.41;;;12.23;100.00
9307;BME280;4691;47.612;7.610;2023-05-11T00:48:14;98651.78;;;12.25;100.00
9307;BME280;4691;47.612;7.610;2023-05-11T00:50:40;98642.50;;;12.29;100.00
9307;BME280;4691;47.612;7.610;2023-05-11T00:53:06;98639.66;;;12.30;100.00
9307;BME280;4691;47.612;7.610;2023-05-11T00:55:31;98648.59;;;12.31;100.00
9307;BME280;4691;47.612;7.610;2023-05-11T00:57:56;98650.00;;;12.35;100.00
9307;BME280;4691;47.612;7.610;2023-05-11T01:00:22;98653.66;;;12.34;100.00
9307;BME280;4691;47.612;7.610;2023-05-11T01:02:47;98650.00;;;12.35;100.00
9307;BME280;4691;47.612;7.610;2023-05-11T01:05:13;98657.06;;;12.36;100.00
9307;BME280;4691;47.612;7.610;2023-05-11T01:07:56;98663.41;;;12.35;100.00
9307;BME280;4691;47.612;7.610;2023-05-11T01:10:29;98667.66;;;12.37;100.00
9307;BME280;4691;47.612;7.610;2023-05-11T01:18:15;98674.84;;;12.37;100.00
9307;BME280;4691;47.612;7.610;2023-05-11T01:20:45;98679.41;;;12.46;100.00
9307;BME280;4691;47.612;7.610;2023-05-11T01:26:32;98678.69;;;12.44;100.00
9307;BME280;4691;47.612;7.610;2023-05-11T01:31:54;98690.38;;;12.43;100.00
9307;BME280;4691;47.612;7.610;2023-05-11T01:34:25;98682.63;;;12.40;100.00
9307;BME280;4691;47.612;7.610;2023-05-11T01:37:05;98678.53;;;12.36;100.00
9307;BME280;4691;47.612;7.610;2023-05-11T01:39:41;98683.59;;;12.39;100.00
9307;BME280;4691;47.612;7.610;2023-05-11T01:42:10;98686.81;;;12.33;100.00
9307;BME280;4691;47.612;7.610;2023-05-11T01:44:41;98689.75;;;12.30;100.00
9307;BME280;4691;47.612;7.610;2023-05-11T01:47:09;98686.91;;;12.22;100.00
9307;BME280;4691;47.612;7.610;2023-05-11T01:49:36;98673.44;;;12.12;100.00
9307;BME280;4691;47.612;7.610;2023-05-11T01:52:05;98661.97;;;12.00;100.00
9307;BME280;4691;47.612;7.610;2023-05-11T01:54:32;98652.03;;;11.91;100.00
9307;BME280;4691;47.612;7.610;2023-05-11T01:56:59;98641.94;;;11.83;100.00
9307;BME280;4691;47.612;7.610;2023-05-11T01:59:26;98634.28;;;11.78;100.00
9307;BME280;4691;47.612;7.610;2023-05-11T02:01:52;98632.50;;;11.79;100.00
9307;BME280;4691;47.612;7.610;2023-05-11T02:04:20;98627.97;;;11.80;100.00
9307;BME280;4691;47.612;7.610;2023-05-11T02:06:47;98616.72;;;11.86;100.00
9307;BME280;4691;47.612;7.610;2023-05-11T02:09:15;98625.63;;;11.86;100.00
9307;BME280;4691;47.612;7.610;2023-05-11T02:11:43;98632.91;;;11.84;100.00
9307;BME280;4691;47.612;7.610;2023-05-11T02:14:10;98632.78;;;11.86;100.00
9307;BME280;4691;47.612;7.610;2023-05-11T02:19:35;98625.50;;;11.88;100.00
9307;BME280;4691;47.612;7.610;2023-05-11T02:22:04;98631.09;;;11.85;100.00
9307;BME280;4691;47.612;7.610;2023-05-11T02:24:31;98624.75;;;11.86;100.00
9307;BME280;4691;47.612;7.610;2023-05-11T02:26:57;98630.88;;;11.88;100.00
9307;BME280;4691;47.612;7.610;2023-05-11T02:29:26;98643.00;;;11.92;100.00
9307;BME280;4691;47.612;7.610;2023-05-11T02:32:05;98636.81;;;11.91;100.00
9307;BME280;4691;47.612;7.610;2023-05-11T02:34:38;98631.59;;;11.90;100.00
9307;BME280;4691;47.612;7.610;2023-05-11T02:37:12;98633.56;;;11.88;100.00
9307;BME280;4691;47.612;7.610;2023-05-11T02:39:40;98634.50;;;11.87;100.00
9307;BME280;4691;47.612;7.610;2023-05-11T02:42:12;98636.22;;;11.88;100.00
9307;BME280;4691;47.612;7.610;2023-05-11T02:44:40;98628.66;;;11.82;100.00
9307;BME280;4691;47.612;7.610;2023-05-11T02:47:11;98628.66;;;11.82;100.00
9307;BME280;4691;47.612;7.610;2023-05-11T02:49:38;98618.94;;;11.81;100.00
9307;BME280;4691;47.612;7.610;2023-05-11T02:52:06;98621.63;;;11.81;100.00
9307;BME280;4691;47.612;7.610;2023-05-11T02:54:32;98612.47;;;11.83;100.00
9307;BME280;4691;47.612;7.610;2023-05-11T02:56:59;98598.97;;;11.85;100.00
9307;BME280;4691;47.612;7.610;2023-05-11T02:59:25;98607.72;;;11.87;100.00
9307;BME280;4691;47.612;7.610;2023-05-11T03:01:51;98601.41;;;11.88;100.00
9307;BME280;4691;47.612;7.610;2023-05-11T03:04:18;98598.44;;;11.91;100.00
9307;BME280;4691;47.612;7.610;2023-05-11T03:06:43;98604.31;;;11.85;100.00
9307;BME280;4691;47.612;7.610;2023-05-11T03:09:09;98596.75;;;11.90;100.00
9307;BME280;4691;47.612;7.610;2023-05-11T03:11:34;98599.06;;;11.83;100.00
9307;BME280;4691;47.612;7.610;2023-05-11T03:14:00;98604.13;;;11.76;100.00
9307;BME280;4691;47.612;7.610;2023-05-11T03:16:26;98584.72;;;11.63;100.00
9307;BME280;4691;47.612;7.610;2023-05-11T03:18:53;98564.63;;;11.48;100.00
9307;BME280;4691;47.612;7.610;2023-05-11T03:21:21;98562.13;;;11.35;100.00
9307;BME280;4691;47.612;7.610;2023-05-11T03:23:48;98542.38;;;11.26;100.00
9307;BME280;4691;47.612;7.610;2023-05-11T03:26:15;98528.06;;;11.16;100.00
9307;BME280;4691;47.612;7.610;2023-05-11T03:28:42;98512.78;;;11.07;100.00
9307;BME280;4691;47.612;7.610;2023-05-11T03:31:08;98499.69;;;11.04;100.00
9307;BME280;4691;47.612;7.610;2023-05-11T03:33:34;98498.25;;;11.00;100.00
9307;BME280;4691;47.612;7.610;2023-05-11T03:36:01;98488.69;;;11.07;100.00
9307;BME280;4691;47.612;7.610;2023-05-11T03:38:27;98460.16;;;11.07;100.00
9307;BME280;4691;47.612;7.610;2023-05-11T03:40:55;98450.28;;;11.08;100.00
9307;BME280;4691;47.612;7.610;2023-05-11T03:43:22;98430.56;;;11.09;100.00
9307;BME280;4691;47.612;7.610;2023-05-11T03:45:52;98420.13;;;11.06;100.00
9307;BME280;4691;47.612;7.610;2023-05-11T03:48:18;98409.44;;;11.06;100.00
9307;BME280;4691;47.612;7.610;2023-05-11T03:50:45;98407.97;;;11.02;100.00
9307;BME280;4691;47.612;7.610;2023-05-11T03:53:11;98407.41;;;10.98;100.00
9307;BME280;4691;47.612;7.610;2023-05-11T03:55:36;98402.91;;;10.99;100.00
9307;BME280;4691;47.612;7.610;2023-05-11T03:58:07;98401.53;;;11.04;100.00
9307;BME280;4691;47.612;7.610;2023-05-11T04:00:36;98389.72;;;11.07;100.00
9307;BME280;4691;47.612;7.610;2023-05-11T04:03:06;98393.09;;;11.09;100.00
9307;BME280;4691;47.612;7.610;2023-05-11T04:05:31;98391.16;;;11.11;100.00
9307;BME280;4691;47.612;7.610;2023-05-11T04:07:57;98386.25;;;11.16;100.00
9307;BME280;4691;47.612;7.610;2023-05-11T04:10:22;98390.75;;;11.16;100.00
9307;BME280;4691;47.612;7.610;2023-05-11T04:12:47;98385.25;;;11.17;100.00
9307;BME280;4691;47.612;7.610;2023-05-11T04:15:13;98385.00;;;11.20;100.00
9307;BME280;4691;47.612;7.610;2023-05-11T04:17:38;98379.38;;;11.23;100.00
9307;BME280;4691;47.612;7.610;2023-05-11T04:20:04;98372.31;;;11.22;100.00
9307;BME280;4691;47.612;7.610;2023-05-11T04:22:30;98371.78;;;11.28;100.00
9307;BME280;4691;47.612;7.610;2023-05-11T04:24:55;98370.69;;;11.31;100.00
9307;BME280;4691;47.612;7.610;2023-05-11T04:27:21;98373.63;;;11.38;100.00
9307;BME280;4691;47.612;7.610;2023-05-11T04:29:46;98370.72;;;11.41;100.00
9307;BME280;4691;47.612;7.610;2023-05-11T04:32:12;98373.13;;;11.44;100.00
9307;BME280;4691;47.612;7.610;2023-05-11T04:34:38;98374.78;;;11.45;100.00
9307;BME280;4691;47.612;7.610;2023-05-11T04:37:03;98396.50;;;11.42;100.00
9307;BME280;4691;47.612;7.610;2023-05-11T04:39:32;98395.81;;;11.49;100.00
9307;BME280;4691;47.612;7.610;2023-05-11T04:41:58;98395.25;;;11.55;100.00
9307;BME280;4691;47.612;7.610;2023-05-11T04:44:23;98403.44;;;11.54;100.00
9307;BME280;4691;47.612;7.610;2023-05-11T04:46:52;98407.41;;;11.60;100.00
9307;BME280;4691;47.612;7.610;2023-05-11T04:49:18;98415.88;;;11.65;100.00
9307;BME280;4691;47.612;7.610;2023-05-11T04:51:43;98442.09;;;11.61;100.00
9307;BME280;4691;47.612;7.610;2023-05-11T04:54:09;98471.72;;;11.69;100.00
9307;BME280;4691;47.612;7.610;2023-05-11T04:56:34;98479.03;;;11.67;100.00
9307;BME280;4691;47.612;7.610;2023-05-11T04:59:04;98484.28;;;11.69;100.00
9307;BME280;4691;47.612;7.610;2023-05-11T05:01:29;98487.78;;;11.69;100.00
9307;BME280;4691;47.612;7.610;2023-05-11T05:03:55;98501.91;;;11.71;100.00
9307;BME280;4691;47.612;7.610;2023-05-11T05:06:20;98521.88;;;11.67;100.00
9307;BME280;4691;47.612;7.610;2023-05-11T05:08:45;98524.44;;;11.69;100.00
9307;BME280;4691;47.612;7.610;2023-05-11T05:11:11;98542.81;;;11.83;100.00
9307;BME280;4691;47.612;7.610;2023-05-11T05:13:36;98543.41;;;11.87;100.00
9307;BME280;4691;47.612;7.610;2023-05-11T05:16:01;98551.34;;;11.88;100.00
9307;BME280;4691;47.612;7.610;2023-05-11T05:18:27;98556.81;;;11.87;100.00
9307;BME280;4691;47.612;7.610;2023-05-11T05:20:52;98558.69;;;11.96;100.00
9307;BME280;4691;47.612;7.610;2023-05-11T05:23:17;98570.59;;;12.03;100.00
9307;BME280;4691;47.612;7.610;2023-05-11T05:25:43;98576.38;;;12.08;100.00
9307;BME280;4691;47.612;7.610;2023-05-11T05:28:08;98582.34;;;12.22;100.00
9307;BME280;4691;47.612;7.610;2023-05-11T05:30:33;98599.16;;;12.24;100.00
9307;BME280;4691;47.612;7.610;2023-05-11T05:33:01;98597.03;;;12.27;100.00
9307;BME280;4691;47.612;7.610;2023-05-11T05:35:26;98596.94;;;12.29;100.00
9307;BME280;4691;47.612;7.610;2023-05-11T05:37:51;98610.22;;;12.40;100.00
9307;BME280;4691;47.612;7.610;2023-05-11T05:40:17;98606.66;;;12.30;100.00
9307;BME280;4691;47.612;7.610;2023-05-11T05:42:42;98614.16;;;12.36;100.00
9307;BME280;4691;47.612;7.610;2023-05-11T05:45:08;98615.44;;;12.41;100.00
9307;BME280;4691;47.612;7.610;2023-05-11T05:47:33;98618.41;;;12.38;100.00
9307;BME280;4691;47.612;7.610;2023-05-11T05:49:59;98612.09;;;12.49;100.00
9307;BME280;4691;47.612;7.610;2023-05-11T05:52:24;98615.13;;;12.75;100.00
9307;BME280;4691;47.612;7.610;2023-05-11T05:54:50;98620.44;;;12.66;100.00
9307;BME280;4691;47.612;7.610;2023-05-11T05:57:15;98625.53;;;12.69;100.00
9307;BME280;4691;47.612;7.610;2023-05-11T05:59:40;98631.78;;;12.79;100.00
9307;BME280;4691;47.612;7.610;2023-05-11T06:02:06;98636.16;;;12.80;100.00
9307;BME280;4691;47.612;7.610;2023-05-11T06:04:32;98643.34;;;12.70;100.00
9307;BME280;4691;47.612;7.610;2023-05-11T06:06:57;98650.69;;;12.68;100.00
9307;BME280;4691;47.612;7.610;2023-05-11T06:09:24;98637.69;;;12.73;100.00
9307;BME280;4691;47.612;7.610;2023-05-11T06:11:49;98650.41;;;12.71;100.00
9307;BME280;4691;47.612;7.610;2023-05-11T06:14:14;98652.34;;;12.69;100.00
9307;BME280;4691;47.612;7.610;2023-05-11T06:16:40;98658.00;;;12.66;100.00
9307;BME280;4691;47.612;7.610;2023-05-11T06:19:06;98658.63;;;12.89;100.00
9307;BME280;4691;47.612;7.610;2023-05-11T06:21:32;98664.16;;;12.87;100.00
9307;BME280;4691;47.612;7.610;2023-05-11T06:23:57;98652.59;;;13.06;100.00
9307;BME280;4691;47.612;7.610;2023-05-11T06:26:22;98655.84;;;13.10;100.00
9307;BME280;4691;47.612;7.610;2023-05-11T06:28:49;98655.28;;;13.16;100.00
9307;BME280;4691;47.612;7.610;2023-05-11T06:31:15;98654.16;;;13.08;100.00
9307;BME280;4691;47.612;7.610;2023-05-11T06:33:41;98653.56;;;13.15;100.00
9307;BME280;4691;47.612;7.610;2023-05-11T06:36:06;98649.19;;;13.04;100.00
9307;BME280;4691;47.612;7.610;2023-05-11T06:38:32;98654.28;;;13.07;100.00
9307;BME280;4691;47.612;7.610;2023-05-11T06:40:57;98653.47;;;13.26;100.00
9307;BME280;4691;47.612;7.610;2023-05-11T06:43:22;98659.28;;;13.31;100.00
9307;BME280;4691;47.612;7.610;2023-05-11T06:45:48;98669.16;;;13.21;100.00
9307;BME280;4691;47.612;7.610;2023-05-11T06:48:14;98665.47;;;13.22;100.00
9307;BME280;4691;47.612;7.610;2023-05-11T06:50:39;98666.34;;;13.32;100.00
9307;BME280;4691;47.612;7.610;2023-05-11T06:53:04;98662.13;;;13.39;100.00
9307;BME280;4691;47.612;7.610;2023-05-11T06:55:30;98665.19;;;13.64;100.00
9307;BME280;4691;47.612;7.610;2023-05-11T06:57:55;98670.31;;;13.67;100.00
9307;BME280;4691;47.612;7.610;2023-05-11T07:00:21;98662.38;;;13.65;100.00
9307;BME280;4691;47.612;7.610;2023-05-11T07:02:46;98662.94;;;13.69;100.00
9307;BME280;4691;47.612;7.610;2023-05-11T07:05:11;98659.09;;;13.91;100.00
9307;BME280;4691;47.612;7.610;2023-05-11T07:07:37;98666.72;;;14.05;100.00
9307;BME280;4691;47.612;7.610;2023-05-11T07:10:04;98665.91;;;14.32;100.00
9307;BME280;4691;47.612;7.610;2023-05-11T07:12:29;98669.72;;;14.40;100.00
9307;BME280;4691;47.612;7.610;2023-05-11T07:14:55;98667.56;;;14.53;100.00
9307;BME280;4691;47.612;7.610;2023-05-11T07:17:20;98678.94;;;14.27;100.00
9307;BME280;4691;47.612;7.610;2023-05-11T07:19:46;98667.13;;;14.10;100.00
9307;BME280;4691;47.612;7.610;2023-05-11T07:22:11;98675.22;;;13.91;100.00
9307;BME280;4691;47.612;7.610;2023-05-11T07:24:37;98674.41;;;14.28;100.00
9307;BME280;4691;47.612;7.610;2023-05-11T07:27:02;98672.44;;;14.30;100.00
9307;BME280;4691;47.612;7.610;2023-05-11T07:29:27;98663.38;;;14.31;100.00
9307;BME280;4691;47.612;7.610;2023-05-11T07:31:53;98669.00;;;14.37;100.00
9307;BME280;4691;47.612;7.610;2023-05-11T07:34:18;98669.38;;;14.52;100.00
9307;BME280;4691;47.612;7.610;2023-05-11T07:36:43;98670.00;;;14.74;100.00
9307;BME280;4691;47.612;7.610;2023-05-11T07:39:10;98664.06;;;14.98;100.00
9307;BME280;4691;47.612;7.610;2023-05-11T07:41:35;98674.13;;;15.41;100.00
9307;BME280;4691;47.612;7.610;2023-05-11T07:44:00;98669.63;;;15.32;100.00
9307;BME280;4691;47.612;7.610;2023-05-11T07:46:26;98666.94;;;15.32;100.00
9307;BME280;4691;47.612;7.610;2023-05-11T07:48:51;98672.09;;;15.43;100.00
9307;BME280;4691;47.612;7.610;2023-05-11T07:51:17;98668.41;;;15.62;100.00
9307;BME280;4691;47.612;7.610;2023-05-11T07:53:42;98665.03;;;16.04;100.00
9307;BME280;4691;47.612;7.610;2023-05-11T07:56:07;98660.72;;;16.11;100.00
9307;BME280;4691;47.612;7.610;2023-05-11T07:58:33;98664.72;;;16.07;100.00
9307;BME280;4691;47.612;7.610;2023-05-11T08:00:59;98668.75;;;16.03;100.00
9307;BME280;4691;47.612;7.610;2023-05-11T08:03:24;98661.09;;;16.17;100.00
9307;BME280;4691;47.612;7.610;2023-05-11T08:05:49;98662.59;;;16.45;100.00
9307;BME280;4691;47.612;7.610;2023-05-11T08:08:15;98660.38;;;16.41;100.00
9307;BME280;4691;47.612;7.610;2023-05-11T08:10:40;98652.19;;;16.59;100.00
9307;BME280;4691;47.612;7.610;2023-05-11T08:13:06;98660.75;;;16.54;100.00
9307;BME280;4691;47.612;7.610;2023-05-11T08:15:31;98664.19;;;16.30;100.00
9307;BME280;4691;47.612;7.610;2023-05-11T08:17:56;98661.78;;;16.19;100.00
9307;BME280;4691;47.612;7.610;2023-05-11T08:20:22;98659.84;;;15.85;100.00
9307;BME280;4691;47.612;7.610;2023-05-11T08:22:47;98665.25;;;15.49;100.00
9307;BME280;4691;47.612;7.610;2023-05-11T08:25:13;98672.25;;;15.24;100.00
9307;BME280;4691;47.612;7.610;2023-05-11T08:27:38;98661.50;;;15.42;100.00
9307;BME280;4691;47.612;7.610;2023-05-11T08:30:04;98657.19;;;15.49;100.00
9307;BME280;4691;47.612;7.610;2023-05-11T08:32:29;98661.84;;;15.65;100.00
9307;BME280;4691;47.612;7.610;2023-05-11T08:34:55;98667.72;;;15.60;100.00
9307;BME280;4691;47.612;7.610;2023-05-11T08:37:21;98669.09;;;15.64;100.00
9307;BME280;4691;47.612;7.610;2023-05-11T08:39:47;98664.25;;;15.50;100.00
9307;BME280;4691;47.612;7.610;2023-05-11T08:42:14;98664.72;;;15.45;100.00
9307;BME280;4691;47.612;7.610;2023-05-11T08:44:41;98662.31;;;15.24;100.00
9307;BME280;4691;47.612;7.610;2023-05-11T08:47:07;98665.31;;;15.21;100.00
9307;BME280;4691;47.612;7.610;2023-05-11T08:49:34;98667.03;;;14.95;100.00
9307;BME280;4691;47.612;7.610;2023-05-11T08:52:03;98663.59;;;14.57;100.00
9307;BME280;4691;47.612;7.610;2023-05-11T08:54:29;98663.59;;;14.57;100.00
9307;BME280;4691;47.612;7.610;2023-05-11T08:56:54;98669.81;;;14.48;100.00
9307;BME280;4691;47.612;7.610;2023-05-11T08:59:22;98674.97;;;14.31;100.00
9307;BME280;4691;47.612;7.610;2023-05-11T09:01:48;98665.44;;;14.00;100.00
9307;BME280;4691;47.612;7.610;2023-05-11T09:04:15;98664.59;;;13.89;100.00
9307;BME280;4691;47.612;7.610;2023-05-11T09:06:41;98657.28;;;13.72;100.00
9307;BME280;4691;47.612;7.610;2023-05-11T09:09:07;98653.34;;;13.57;100.00
9307;BME280;4691;47.612;7.610;2023-05-11T09:11:33;98657.88;;;13.46;100.00
9307;BME280;4691;47.612;7.610;2023-05-11T09:13:58;98645.16;;;13.29;100.00
9307;BME280;4691;47.612;7.610;2023-05-11T09:16:23;98656.59;;;13.31;100.00
9307;BME280;4691;47.612;7.610;2023-05-11T09:18:50;98651.38;;;13.39;100.00
9307;BME280;4691;47.612;7.610;2023-05-11T09:21:16;98641.06;;;13.54;100.00
9307;BME280;4691;47.612;7.610;2023-05-11T09:23:41;98644.00;;;13.70;100.00
9307;BME280;4691;47.612;7.610;2023-05-11T09:26:20;98641.44;;;13.69;100.00
9307;BME280;4691;47.612;7.610;2023-05-11T09:28:50;98626.63;;;13.65;100.00
9307;BME280;4691;47.612;7.610;2023-05-11T09:31:41;98622.31;;;13.82;100.00
9307;BME280;4691;47.612;7.610;2023-05-11T09:34:15;98621.91;;;13.77;100.00
9307;BME280;4691;47.612;7.610;2023-05-11T09:36:45;98623.75;;;13.66;100.00
9307;BME280;4691;47.612;7.610;2023-05-11T09:39:14;98624.03;;;13.83;100.00
9307;BME280;4691;47.612;7.610;2023-05-11T09:41:40;98631.81;;;13.86;100.00
9307;BME280;4691;47.612;7.610;2023-05-11T09:44:06;98630.88;;;14.05;100.00
9307;BME280;4691;47.612;7.610;2023-05-11T09:46:34;98625.81;;;14.02;100.00
9307;BME280;4691;47.612;7.610;2023-05-11T09:49:00;98623.50;;;14.16;100.00
9307;BME280;4691;47.612;7.610;2023-05-11T09:51:34;98622.16;;;14.68;100.00
9307;BME280;4691;47.612;7.610;2023-05-11T09:54:14;98613.75;;;14.80;100.00
9307;BME280;4691;47.612;7.610;2023-05-11T09:56:50;98621.81;;;14.80;100.00
9307;BME280;4691;47.612;7.610;2023-05-11T09:59:35;98620.63;;;15.29;100.00
9307;BME280;4691;47.612;7.610;2023-05-11T10:02:16;98619.84;;;15.54;100.00
9307;BME280;4691;47.612;7.610;2023-05-11T10:04:41;98616.44;;;15.96;100.00
9307;BME280;4691;47.612;7.610;2023-05-11T10:07:06;98610.00;;;16.49;100.00
9307;BME280;4691;47.612;7.610;2023-05-11T10:09:32;98588.41;;;18.85;100.00
9307;BME280;4691;47.612;7.610;2023-05-11T10:11:58;98581.81;;;19.11;100.00
9307;BME280;4691;47.612;7.610;2023-05-11T10:14:26;98572.69;;;18.89;100.00
9307;BME280;4691;47.612;7.610;2023-05-11T10:16:52;98584.31;;;18.58;100.00
9307;BME280;4691;47.612;7.610;2023-05-11T10:19:18;98593.63;;;18.08;100.00
9307;BME280;4691;47.612;7.610;2023-05-11T10:21:44;98596.34;;;17.18;100.00
9307;BME280;4691;47.612;7.610;2023-05-11T10:24:10;98617.44;;;15.95;100.00
9307;BME280;4691;47.612;7.610;2023-05-11T10:26:36;98617.34;;;16.05;100.00
9307;BME280;4691;47.612;7.610;2023-05-11T10:29:02;98622.22;;;16.01;100.00
9307;BME280;4691;47.612;7.610;2023-05-11T10:31:28;98619.84;;;15.98;100.00
9307;BME280;4691;47.612;7.610;2023-05-11T10:33:54;98614.75;;;15.95;100.00
9307;BME280;4691;47.612;7.610;2023-05-11T10:36:22;98604.47;;;16.25;100.00
9307;BME280;4691;47.612;7.610;2023-05-11T10:38:48;98606.78;;;16.11;100.00
9307;BME280;4691;47.612;7.610;2023-05-11T10:41:46;98602.69;;;16.07;100.00
9307;BME280;4691;47.612;7.610;2023-05-11T10:52:42;98599.84;;;15.83;100.00
9307;BME280;4691;47.612;7.610;2023-05-11T10:55:25;98593.06;;;16.05;100.00
9307;BME280;4691;47.612;7.610;2023-05-11T10:58:10;98581.44;;;16.39;100.00
9307;BME280;4691;47.612;7.610;2023-05-11T11:00:50;98584.63;;;16.34;100.00
9307;BME280;4691;47.612;7.610;2023-05-11T11:03:26;98581.88;;;16.26;100.00
9307;BME280;4691;47.612;7.610;2023-05-11T11:05:51;98571.22;;;16.59;100.00
9307;BME280;4691;47.612;7.610;2023-05-11T11:08:16;98562.06;;;17.02;100.00
9307;BME280;4691;47.612;7.610;2023-05-11T11:10:43;98551.16;;;18.17;100.00
9307;BME280;4691;47.612;7.610;2023-05-11T11:13:12;98545.88;;;18.32;100.00
9307;BME280;4691;47.612;7.610;2023-05-11T11:18:29;98551.25;;;19.02;100.00
9307;BME280;4691;47.612;7.610;2023-05-11T11:20:57;98554.59;;;18.42;100.00
9307;BME280;4691;47.612;7.610;2023-05-11T11:23:42;98556.81;;;17.91;100.00
9307;BME280;4691;47.612;7.610;2023-05-11T11:26:09;98561.88;;;17.69;100.00
9307;BME280;4691;47.612;7.610;2023-05-11T11:31:31;98563.84;;;18.08;100.00
9307;BME280;4691;47.612;7.610;2023-05-11T11:33:59;98558.81;;;18.44;100.00
9307;BME280;4691;47.612;7.610;2023-05-11T11:39:27;98535.69;;;19.42;100.00
9307;BME280;4691;47.612;7.610;2023-05-11T11:42:02;98552.13;;;18.63;100.00
9307;BME280;4691;47.612;7.610;2023-05-11T11:44:28;98564.25;;;17.72;100.00
9307;BME280;4691;47.612;7.610;2023-05-11T11:49:38;98570.50;;;16.48;100.00
9307;BME280;4691;47.612;7.610;2023-05-11T11:52:03;98568.66;;;16.49;100.00
9307;BME280;4691;47.612;7.610;2023-05-11T11:54:43;98569.28;;;16.00;100.00
9307;BME280;4691;47.612;7.610;2023-05-11T12:00:00;98562.66;;;15.95;100.00
9307;BME280;4691;47.612;7.610;2023-05-11T12:02:27;98564.56;;;16.02;100.00
9307;BME280;4691;47.612;7.610;2023-05-11T12:04:59;98555.44;;;16.29;100.00
9307;BME280;4691;47.612;7.610;2023-05-11T12:07:25;98551.31;;;16.60;100.00
9307;BME280;4691;47.612;7.610;2023-05-11T12:09:51;98548.06;;;16.90;100.00
9307;BME280;4691;47.612;7.610;2023-05-11T12:12:18;98546.38;;;17.38;100.00
9307;BME280;4691;47.612;7.610;2023-05-11T12:14:45;98533.69;;;17.31;100.00
9307;BME280;4691;47.612;7.610;2023-05-11T12:17:22;98535.84;;;17.84;100.00
9307;BME280;4691;47.612;7.610;2023-05-11T12:19:48;98540.28;;;17.61;100.00
9307;BME280;4691;47.612;7.610;2023-05-11T12:22:13;98523.09;;;18.49;100.00
9307;BME280;4691;47.612;7.610;2023-05-11T12:24:41;98531.78;;;18.67;100.00
9307;BME280;4691;47.612;7.610;2023-05-11T12:27:07;98523.97;;;18.72;100.00
9307;BME280;4691;47.612;7.610;2023-05-11T12:29:32;98534.63;;;19.05;100.00
9307;BME280;4691;47.612;7.610;2023-05-11T12:31:58;98538.28;;;18.58;100.00
9307;BME280;4691;47.612;7.610;2023-05-11T12:34:23;98524.16;;;19.78;100.00
9307;BME280;4691;47.612;7.610;2023-05-11T12:36:50;98527.16;;;18.84;100.00
9307;BME280;4691;47.612;7.610;2023-05-11T12:39:24;98531.78;;;18.67;100.00
9307;BME280;4691;47.612;7.610;2023-05-11T12:41:51;98540.09;;;17.87;100.00
9307;BME280;4691;47.612;7.610;2023-05-11T12:44:17;98541.38;;;18.08;100.00
9307;BME280;4691;47.612;7.610;2023-05-11T12:46:47;98535.84;;;18.40;100.00
9307;BME280;4691;47.612;7.610;2023-05-11T12:49:17;98519.38;;;18.50;100.00
9307;BME280;4691;47.612;7.610;2023-05-11T12:54:25;98509.50;;;18.57;100.00
9307;BME280;4691;47.612;7.610;2023-05-11T12:56:51;98514.59;;;19.52;100.00
9307;BME280;4691;47.612;7.610;2023-05-11T12:59:36;98477.41;;;20.06;100.00
9307;BME280;4691;47.612;7.610;2023-05-11T13:02:13;98489.09;;;20.06;100.00
9307;BME280;4691;47.612;7.610;2023-05-11T13:04:41;98520.13;;;18.67;100.00
9307;BME280;4691;47.612;7.610;2023-05-11T13:07:06;98529.97;;;17.81;100.00
9307;BME280;4691;47.612;7.610;2023-05-11T13:09:32;98530.16;;;17.06;100.00
9307;BME280;4691;47.612;7.610;2023-05-11T13:12:17;98548.78;;;16.16;100.00
9307;BME280;4691;47.612;7.610;2023-05-11T13:14:49;98549.19;;;15.95;100.00
9307;BME280;4691;47.612;7.610;2023-05-11T13:17:31;98543.28;;;15.91;100.00
9307;BME280;4691;47.612;7.610;2023-05-11T13:22:42;98535.69;;;15.68;100.00
9307;BME280;4691;47.612;7.610;2023-05-11T13:25:08;98541.50;;;15.56;100.00
9307;BME280;4691;47.612;7.610;2023-05-11T13:27:34;98537.69;;;15.66;100.00
9307;BME280;4691;47.612;7.610;2023-05-11T13:30:00;98526.00;;;15.76;100.00
9307;BME280;4691;47.612;7.610;2023-05-11T13:32:25;98527.06;;;15.83;100.00
9307;BME280;4691;47.612;7.610;2023-05-11T13:34:50;98521.31;;;16.12;100.00
9307;BME280;4691;47.612;7.610;2023-05-11T13:37:16;98519.19;;;16.32;100.00
9307;BME280;4691;47.612;7.610;2023-05-11T13:39:41;98514.53;;;16.59;100.00
9307;BME280;4691;47.612;7.610;2023-05-11T13:42:06;98505.09;;;16.54;100.00
9307;BME280;4691;47.612;7.610;2023-05-11T13:44:32;98499.38;;;16.74;100.00
9307;BME280;4691;47.612;7.610;2023-05-11T13:46:57;98486.25;;;17.28;100.00
9307;BME280;4691;47.612;7.610;2023-05-11T13:49:22;98491.34;;;17.15;100.00
9307;BME280;4691;47.612;7.610;2023-05-11T13:51:48;98496.72;;;17.15;100.00
9307;BME280;4691;47.612;7.610;2023-05-11T13:54:13;98509.56;;;17.29;100.00